sensor_id;sensor_type;location;lat;lon;timestamp;P1;durP1;ratioP1;P2;durP2;ratioP2
1949;SDS011;975;48.760;9.152;2023-02-11T00:01:18;31.23;;;11.35;;
1949;SDS011;975;48.760;9.152;2023-02-11T00:03:48;36.13;;;12.82;;
1949;SDS011;975;48.760;9.152;2023-02-11T00:06:15;31.20;;;11.75;;
1949;SDS011;975;48.760;9.152;2023-02-11T00:08:43;31.27;;;12.25;;
1949;SDS011;975;48.760;9.152;2023-02-11T00:11:11;29.88;;;11.65;;
1949;SDS011;975;48.760;9.152;2023-02-11T00:13:39;35.95;;;12.18;;
1949;SDS011;975;48.760;9.152;2023-02-11T00:16:10;31.98;;;10.35;;
1949;SDS011;975;48.760;9.152;2023-02-11T00:18:39;30.67;;;11.27;;
1949;SDS011;975;48.760;9.152;2023-02-11T00:21:08;27.92;;;10.40;;
1949;SDS011;975;48.760;9.152;2023-02-11T00:23:36;25.67;;;10.70;;
1949;SDS011;975;48.760;9.152;2023-02-11T00:26:09;30.92;;;12.40;;
1949;SDS011;975;48.760;9.152;2023-02-11T00:28:41;29.48;;;10.52;;
1949;SDS011;975;48.760;9.152;2023-02-11T00:31:09;31.38;;;11.02;;
1949;SDS011;975;48.760;9.152;2023-02-11T00:33:37;28.63;;;10.18;;
1949;SDS011;975;48.760;9.152;2023-02-11T00:36:05;34.97;;;10.77;;
1949;SDS011;975;48.760;9.152;2023-02-11T00:38:34;28.90;;;10.60;;
1949;SDS011;975;48.760;9.152;2023-02-11T00:41:02;29.48;;;9.95;;
1949;SDS011;975;48.760;9.152;2023-02-11T00:43:30;28.33;;;12.05;;
1949;SDS011;975;48.760;9.152;2023-02-11T00:45:57;32.42;;;11.25;;
1949;SDS011;975;48.760;9.152;2023-02-11T00:48:25;29.10;;;10.60;;
1949;SDS011;975;48.760;9.152;2023-02-11T00:50:53;30.58;;;11.73;;
1949;SDS011;975;48.760;9.152;2023-02-11T00:53:20;37.17;;;13.02;;
1949;SDS011;975;48.760;9.152;2023-02-11T00:55:49;30.83;;;10.82;;
1949;SDS011;975;48.760;9.152;2023-02-11T00:58:17;31.00;;;10.98;;
1949;SDS011;975;48.760;9.152;2023-02-11T01:00:45;31.00;;;11.25;;
1949;SDS011;975;48.760;9.152;2023-02-11T01:03:13;31.40;;;10.93;;
1949;SDS011;975;48.760;9.152;2023-02-11T01:05:40;30.60;;;10.98;;
1949;SDS011;975;48.760;9.152;2023-02-11T01:08:08;37.55;;;10.93;;
1949;SDS011;975;48.760;9.152;2023-02-11T01:10:39;29.33;;;10.27;;
1949;SDS011;975;48.760;9.152;2023-02-11T01:13:10;30.75;;;11.10;;
1949;SDS011;975;48.760;9.152;2023-02-11T01:15:38;34.58;;;11.70;;
1949;SDS011;975;48.760;9.152;2023-02-11T01:18:05;27.83;;;11.70;;
1949;SDS011;975;48.760;9.152;2023-02-11T01:20:33;34.28;;;11.20;;
1949;SDS011;975;48.760;9.152;2023-02-11T01:23:00;26.15;;;10.15;;
1949;SDS011;975;48.760;9.152;2023-02-11T01:25:28;30.45;;;10.95;;
1949;SDS011;975;48.760;9.152;2023-02-11T01:27:56;33.13;;;10.70;;
1949;SDS011;975;48.760;9.152;2023-02-11T01:30:25;31.10;;;10.75;;
1949;SDS011;975;48.760;9.152;2023-02-11T01:32:55;32.58;;;11.27;;
1949;SDS011;975;48.760;9.152;2023-02-11T01:35:23;32.53;;;10.75;;
1949;SDS011;975;48.760;9.152;2023-02-11T01:37:50;27.40;;;10.15;;
1949;SDS011;975;48.760;9.152;2023-02-11T01:40:18;29.73;;;11.25;;
1949;SDS011;975;48.760;9.152;2023-02-11T01:42:45;30.98;;;11.98;;
1949;SDS011;975;48.760;9.152;2023-02-11T01:48:00;32.63;;;11.93;;
1949;SDS011;975;48.760;9.152;2023-02-11T01:50:28;32.10;;;11.90;;
1949;SDS011;975;48.760;9.152;2023-02-11T01:52:56;37.03;;;11.13;;
1949;SDS011;975;48.760;9.152;2023-02-11T01:55:44;32.10;;;10.13;;
1949;SDS011;975;48.760;9.152;2023-02-11T01:58:32;33.88;;;11.77;;
1949;SDS011;975;48.760;9.152;2023-02-11T02:01:01;31.17;;;11.40;;
1949;SDS011;975;48.760;9.152;2023-02-11T02:03:32;32.97;;;11.70;;
1949;SDS011;975;48.760;9.152;2023-02-11T02:06:02;31.60;;;12.13;;
1949;SDS011;975;48.760;9.152;2023-02-11T02:08:34;34.58;;;11.93;;
1949;SDS011;975;48.760;9.152;2023-02-11T02:11:02;31.15;;;12.00;;
1949;SDS011;975;48.760;9.152;2023-02-11T02:13:31;29.70;;;11.63;;
1949;SDS011;975;48.760;9.152;2023-02-11T02:16:00;34.72;;;12.52;;
1949;SDS011;975;48.760;9.152;2023-02-11T02:18:31;28.40;;;11.32;;
1949;SDS011;975;48.760;9.152;2023-02-11T02:21:21;31.17;;;13.43;;
1949;SDS011;975;48.760;9.152;2023-02-11T02:26:53;25.80;;;10.05;;
1949;SDS011;975;48.760;9.152;2023-02-11T02:29:33;31.52;;;10.70;;
1949;SDS011;975;48.760;9.152;2023-02-11T02:32:20;33.28;;;11.50;;
1949;SDS011;975;48.760;9.152;2023-02-11T02:34:49;30.65;;;10.77;;
1949;SDS011;975;48.760;9.152;2023-02-11T02:37:18;32.80;;;12.20;;
1949;SDS011;975;48.760;9.152;2023-02-11T02:39:48;28.52;;;10.73;;
1949;SDS011;975;48.760;9.152;2023-02-11T02:42:16;30.90;;;10.70;;
1949;SDS011;975;48.760;9.152;2023-02-11T02:44:46;31.83;;;11.32;;
1949;SDS011;975;48.760;9.152;2023-02-11T02:47:14;31.48;;;11.90;;
1949;SDS011;975;48.760;9.152;2023-02-11T02:49:44;30.48;;;10.80;;
1949;SDS011;975;48.760;9.152;2023-02-11T02:52:15;30.13;;;10.82;;
1949;SDS011;975;48.760;9.152;2023-02-11T02:54:49;27.55;;;11.55;;
1949;SDS011;975;48.760;9.152;2023-02-11T02:57:24;32.10;;;11.20;;
1949;SDS011;975;48.760;9.152;2023-02-11T02:59:56;30.35;;;10.88;;
1949;SDS011;975;48.760;9.152;2023-02-11T03:02:28;30.92;;;10.48;;
1949;SDS011;975;48.760;9.152;2023-02-11T03:04:59;26.83;;;10.90;;
1949;SDS011;975;48.760;9.152;2023-02-11T03:07:31;26.75;;;10.80;;
1949;SDS011;975;48.760;9.152;2023-02-11T03:10:07;34.25;;;10.68;;
1949;SDS011;975;48.760;9.152;2023-02-11T03:12:35;30.77;;;10.43;;
1949;SDS011;975;48.760;9.152;2023-02-11T03:15:04;32.63;;;10.90;;
1949;SDS011;975;48.760;9.152;2023-02-11T03:17:36;33.42;;;11.25;;
1949;SDS011;975;48.760;9.152;2023-02-11T03:20:09;29.00;;;11.15;;
1949;SDS011;975;48.760;9.152;2023-02-11T03:22:40;29.20;;;10.70;;
1949;SDS011;975;48.760;9.152;2023-02-11T03:25:08;27.67;;;10.60;;
1949;SDS011;975;48.760;9.152;2023-02-11T03:27:38;33.00;;;11.65;;
1949;SDS011;975;48.760;9.152;2023-02-11T03:30:09;28.27;;;10.93;;
1949;SDS011;975;48.760;9.152;2023-02-11T03:32:38;27.77;;;10.18;;
1949;SDS011;975;48.760;9.152;2023-02-11T03:35:09;31.83;;;9.80;;
1949;SDS011;975;48.760;9.152;2023-02-11T03:37:38;26.67;;;9.75;;
1949;SDS011;975;48.760;9.152;2023-02-11T03:40:07;32.05;;;9.70;;
1949;SDS011;975;48.760;9.152;2023-02-11T03:42:37;30.30;;;10.57;;
1949;SDS011;975;48.760;9.152;2023-02-11T03:45:08;27.52;;;10.73;;
1949;SDS011;975;48.760;9.152;2023-02-11T03:47:37;33.05;;;11.90;;
1949;SDS011;975;48.760;9.152;2023-02-11T03:50:06;30.08;;;10.63;;
1949;SDS011;975;48.760;9.152;2023-02-11T03:52:36;31.98;;;10.13;;
1949;SDS011;975;48.760;9.152;2023-02-11T03:55:05;27.58;;;10.32;;
1949;SDS011;975;48.760;9.152;2023-02-11T03:57:34;28.25;;;10.52;;
1949;SDS011;975;48.760;9.152;2023-02-11T04:00:02;31.33;;;11.93;;
1949;SDS011;975;48.760;9.152;2023-02-11T04:02:30;29.45;;;10.98;;
1949;SDS011;975;48.760;9.152;2023-02-11T04:04:59;26.25;;;10.68;;
1949;SDS011;975;48.760;9.152;2023-02-11T04:07:27;30.80;;;10.18;;
1949;SDS011;975;48.760;9.152;2023-02-11T04:09:56;35.83;;;10.20;;
1949;SDS011;975;48.760;9.152;2023-02-11T04:12:24;31.10;;;10.52;;
1949;SDS011;975;48.760;9.152;2023-02-11T04:14:52;29.17;;;10.65;;
1949;SDS011;975;48.760;9.152;2023-02-11T04:17:19;31.05;;;10.63;;
1949;SDS011;975;48.760;9.152;2023-02-11T04:19:47;31.98;;;11.38;;
1949;SDS011;975;48.760;9.152;2023-02-11T04:22:14;29.92;;;11.02;;
1949;SDS011;975;48.760;9.152;2023-02-11T04:24:48;30.52;;;11.68;;
1949;SDS011;975;48.760;9.152;2023-02-11T04:27:19;31.42;;;11.80;;
1949;SDS011;975;48.760;9.152;2023-02-11T04:29:47;32.38;;;11.63;;
1949;SDS011;975;48.760;9.152;2023-02-11T04:32:15;27.17;;;10.98;;
1949;SDS011;975;48.760;9.152;2023-02-11T04:34:45;33.38;;;10.57;;
1949;SDS011;975;48.760;9.152;2023-02-11T04:37:16;28.50;;;9.75;;
1949;SDS011;975;48.760;9.152;2023-02-11T04:39:47;26.73;;;11.13;;
1949;SDS011;975;48.760;9.152;2023-02-11T04:42:14;25.65;;;10.32;;
1949;SDS011;975;48.760;9.152;2023-02-11T04:44:46;31.83;;;11.07;;
1949;SDS011;975;48.760;9.152;2023-02-11T04:47:14;30.85;;;10.30;;
1949;SDS011;975;48.760;9.152;2023-02-11T04:49:42;30.90;;;11.25;;
1949;SDS011;975;48.760;9.152;2023-02-11T04:52:09;26.45;;;10.10;;
1949;SDS011;975;48.760;9.152;2023-02-11T04:54:39;35.03;;;11.13;;
1949;SDS011;975;48.760;9.152;2023-02-11T04:57:06;29.13;;;10.85;;
1949;SDS011;975;48.760;9.152;2023-02-11T04:59:34;24.08;;;10.18;;
1949;SDS011;975;48.760;9.152;2023-02-11T05:02:03;30.25;;;11.35;;
1949;SDS011;975;48.760;9.152;2023-02-11T05:04:33;30.48;;;10.48;;
1949;SDS011;975;48.760;9.152;2023-02-11T05:07:01;26.20;;;10.63;;
1949;SDS011;975;48.760;9.152;2023-02-11T05:09:29;31.50;;;12.02;;
1949;SDS011;975;48.760;9.152;2023-02-11T05:11:56;25.23;;;10.50;;
1949;SDS011;975;48.760;9.152;2023-02-11T05:14:30;31.77;;;11.23;;
1949;SDS011;975;48.760;9.152;2023-02-11T05:16:57;34.75;;;11.85;;
1949;SDS011;975;48.760;9.152;2023-02-11T05:19:26;24.45;;;10.93;;
1949;SDS011;975;48.760;9.152;2023-02-11T05:21:55;24.17;;;10.48;;
1949;SDS011;975;48.760;9.152;2023-02-11T05:24:26;31.40;;;11.05;;
1949;SDS011;975;48.760;9.152;2023-02-11T05:26:53;33.53;;;11.50;;
1949;SDS011;975;48.760;9.152;2023-02-11T05:29:21;31.33;;;10.80;;
1949;SDS011;975;48.760;9.152;2023-02-11T05:31:48;34.70;;;12.50;;
1949;SDS011;975;48.760;9.152;2023-02-11T05:34:16;31.90;;;11.43;;
1949;SDS011;975;48.760;9.152;2023-02-11T05:36:45;30.75;;;12.05;;
1949;SDS011;975;48.760;9.152;2023-02-11T05:39:13;31.27;;;12.07;;
1949;SDS011;975;48.760;9.152;2023-02-11T05:41:40;34.33;;;12.48;;
1949;SDS011;975;48.760;9.152;2023-02-11T05:44:11;32.58;;;12.50;;
1949;SDS011;975;48.760;9.152;2023-02-11T05:46:38;34.05;;;11.70;;
1949;SDS011;975;48.760;9.152;2023-02-11T05:49:06;30.90;;;11.45;;
1949;SDS011;975;48.760;9.152;2023-02-11T05:51:34;31.50;;;12.13;;
1949;SDS011;975;48.760;9.152;2023-02-11T05:54:03;30.70;;;12.15;;
1949;SDS011;975;48.760;9.152;2023-02-11T05:56:30;29.75;;;11.38;;
1949;SDS011;975;48.760;9.152;2023-02-11T05:58:58;29.77;;;11.00;;
1949;SDS011;975;48.760;9.152;2023-02-11T06:01:26;27.48;;;11.77;;
1949;SDS011;975;48.760;9.152;2023-02-11T06:03:53;34.20;;;13.07;;
1949;SDS011;975;48.760;9.152;2023-02-11T06:06:21;33.47;;;12.70;;
1949;SDS011;975;48.760;9.152;2023-02-11T06:08:49;31.48;;;11.82;;
1949;SDS011;975;48.760;9.152;2023-02-11T06:11:18;31.40;;;11.32;;
1949;SDS011;975;48.760;9.152;2023-02-11T06:13:45;31.33;;;11.55;;
1949;SDS011;975;48.760;9.152;2023-02-11T06:16:13;29.95;;;11.68;;
1949;SDS011;975;48.760;9.152;2023-02-11T06:18:41;29.88;;;12.13;;
1949;SDS011;975;48.760;9.152;2023-02-11T06:21:09;23.60;;;10.75;;
1949;SDS011;975;48.760;9.152;2023-02-11T06:23:37;33.15;;;12.60;;
1949;SDS011;975;48.760;9.152;2023-02-11T06:26:05;32.08;;;12.07;;
1949;SDS011;975;48.760;9.152;2023-02-11T06:28:34;26.35;;;10.88;;
1949;SDS011;975;48.760;9.152;2023-02-11T06:31:05;28.73;;;11.35;;
1949;SDS011;975;48.760;9.152;2023-02-11T06:33:34;28.35;;;11.70;;
1949;SDS011;975;48.760;9.152;2023-02-11T06:36:02;27.23;;;10.40;;
1949;SDS011;975;48.760;9.152;2023-02-11T06:38:30;31.25;;;11.50;;
1949;SDS011;975;48.760;9.152;2023-02-11T06:40:57;28.35;;;11.90;;
1949;SDS011;975;48.760;9.152;2023-02-11T06:43:25;26.92;;;11.43;;
1949;SDS011;975;48.760;9.152;2023-02-11T06:45:54;27.40;;;11.88;;
1949;SDS011;975;48.760;9.152;2023-02-11T06:48:22;28.02;;;10.95;;
1949;SDS011;975;48.760;9.152;2023-02-11T06:50:50;27.40;;;10.65;;
1949;SDS011;975;48.760;9.152;2023-02-11T06:53:17;28.70;;;10.88;;
1949;SDS011;975;48.760;9.152;2023-02-11T06:55:45;32.80;;;12.20;;
1949;SDS011;975;48.760;9.152;2023-02-11T06:58:12;28.30;;;11.60;;
1949;SDS011;975;48.760;9.152;2023-02-11T07:00:40;27.20;;;10.32;;
1949;SDS011;975;48.760;9.152;2023-02-11T07:03:09;24.25;;;10.50;;
1949;SDS011;975;48.760;9.152;2023-02-11T07:05:36;26.75;;;10.35;;
1949;SDS011;975;48.760;9.152;2023-02-11T07:08:04;24.55;;;11.13;;
1949;SDS011;975;48.760;9.152;2023-02-11T07:10:32;24.10;;;10.32;;
1949;SDS011;975;48.760;9.152;2023-02-11T07:13:00;26.70;;;11.15;;
1949;SDS011;975;48.760;9.152;2023-02-11T07:15:28;27.17;;;11.43;;
1949;SDS011;975;48.760;9.152;2023-02-11T07:17:55;29.70;;;10.52;;
1949;SDS011;975;48.760;9.152;2023-02-11T07:20:25;29.40;;;12.15;;
1949;SDS011;975;48.760;9.152;2023-02-11T07:22:53;29.27;;;11.10;;
1949;SDS011;975;48.760;9.152;2023-02-11T07:25:21;23.23;;;10.07;;
1949;SDS011;975;48.760;9.152;2023-02-11T07:27:49;28.63;;;11.63;;
1949;SDS011;975;48.760;9.152;2023-02-11T07:30:17;29.40;;;11.15;;
1949;SDS011;975;48.760;9.152;2023-02-11T07:32:44;26.35;;;10.27;;
1949;SDS011;975;48.760;9.152;2023-02-11T07:35:12;28.00;;;11.60;;
1949;SDS011;975;48.760;9.152;2023-02-11T07:37:41;26.65;;;10.13;;
1949;SDS011;975;48.760;9.152;2023-02-11T07:40:09;26.48;;;11.57;;
1949;SDS011;975;48.760;9.152;2023-02-11T07:42:37;23.20;;;10.25;;
1949;SDS011;975;48.760;9.152;2023-02-11T07:45:06;27.55;;;10.63;;
1949;SDS011;975;48.760;9.152;2023-02-11T07:47:34;27.95;;;9.90;;
1949;SDS011;975;48.760;9.152;2023-02-11T07:50:02;26.67;;;10.93;;
1949;SDS011;975;48.760;9.152;2023-02-11T07:52:31;28.85;;;11.52;;
1949;SDS011;975;48.760;9.152;2023-02-11T07:55:00;33.80;;;11.10;;
1949;SDS011;975;48.760;9.152;2023-02-11T07:57:28;27.58;;;11.20;;
1949;SDS011;975;48.760;9.152;2023-02-11T07:59:55;31.60;;;11.38;;
1949;SDS011;975;48.760;9.152;2023-02-11T08:02:23;25.45;;;10.43;;
1949;SDS011;975;48.760;9.152;2023-02-11T08:04:50;29.73;;;10.32;;
1949;SDS011;975;48.760;9.152;2023-02-11T08:07:18;24.38;;;10.18;;
1949;SDS011;975;48.760;9.152;2023-02-11T08:09:46;29.73;;;10.27;;
1949;SDS011;975;48.760;9.152;2023-02-11T08:12:17;26.98;;;11.23;;
1949;SDS011;975;48.760;9.152;2023-02-11T08:14:45;27.88;;;10.80;;
1949;SDS011;975;48.760;9.152;2023-02-11T08:17:15;23.95;;;10.48;;
1949;SDS011;975;48.760;9.152;2023-02-11T08:19:43;29.80;;;10.70;;
1949;SDS011;975;48.760;9.152;2023-02-11T08:22:11;27.35;;;11.25;;
1949;SDS011;975;48.760;9.152;2023-02-11T08:24:38;26.67;;;10.27;;
1949;SDS011;975;48.760;9.152;2023-02-11T08:27:06;21.50;;;10.35;;
1949;SDS011;975;48.760;9.152;2023-02-11T08:29:35;27.73;;;10.50;;
1949;SDS011;975;48.760;9.152;2023-02-11T08:32:25;23.27;;;10.13;;
1949;SDS011;975;48.760;9.152;2023-02-11T08:34:53;20.88;;;10.25;;
1949;SDS011;975;48.760;9.152;2023-02-11T08:37:21;24.35;;;9.15;;
1949;SDS011;975;48.760;9.152;2023-02-11T08:39:48;22.65;;;8.93;;
1949;SDS011;975;48.760;9.152;2023-02-11T08:42:16;25.55;;;10.43;;
1949;SDS011;975;48.760;9.152;2023-02-11T08:44:45;26.75;;;10.88;;
1949;SDS011;975;48.760;9.152;2023-02-11T08:47:12;27.17;;;11.48;;
1949;SDS011;975;48.760;9.152;2023-02-11T08:49:40;25.98;;;11.35;;
1949;SDS011;975;48.760;9.152;2023-02-11T08:52:07;27.42;;;11.55;;
1949;SDS011;975;48.760;9.152;2023-02-11T08:54:35;26.50;;;11.63;;
1949;SDS011;975;48.760;9.152;2023-02-11T08:57:03;33.30;;;13.07;;
1949;SDS011;975;48.760;9.152;2023-02-11T08:59:31;30.38;;;12.05;;
1949;SDS011;975;48.760;9.152;2023-02-11T09:02:00;29.83;;;12.27;;
1949;SDS011;975;48.760;9.152;2023-02-11T09:04:28;34.30;;;13.32;;
1949;SDS011;975;48.760;9.152;2023-02-11T09:06:55;31.10;;;13.38;;
1949;SDS011;975;48.760;9.152;2023-02-11T09:09:23;28.02;;;11.70;;
1949;SDS011;975;48.760;9.152;2023-02-11T09:11:50;32.38;;;12.40;;
1949;SDS011;975;48.760;9.152;2023-02-11T09:16:49;27.67;;;9.70;;
1949;SDS011;975;48.760;9.152;2023-02-11T09:19:19;21.45;;;9.13;;
1949;SDS011;975;48.760;9.152;2023-02-11T09:21:47;26.25;;;9.32;;
1949;SDS011;975;48.760;9.152;2023-02-11T09:24:15;21.70;;;9.23;;
1949;SDS011;975;48.760;9.152;2023-02-11T09:26:43;19.00;;;8.68;;
1949;SDS011;975;48.760;9.152;2023-02-11T09:29:10;22.52;;;8.85;;
1949;SDS011;975;48.760;9.152;2023-02-11T09:31:38;18.98;;;8.23;;
1949;SDS011;975;48.760;9.152;2023-02-11T09:34:06;18.90;;;8.95;;
1949;SDS011;975;48.760;9.152;2023-02-11T09:36:35;19.95;;;8.35;;
1949;SDS011;975;48.760;9.152;2023-02-11T09:39:04;15.73;;;7.95;;
1949;SDS011;975;48.760;9.152;2023-02-11T09:41:34;19.10;;;7.82;;
1949;SDS011;975;48.760;9.152;2023-02-11T09:44:05;19.50;;;8.57;;
1949;SDS011;975;48.760;9.152;2023-02-11T09:46:34;18.73;;;8.55;;
1949;SDS011;975;48.760;9.152;2023-02-11T09:49:02;17.88;;;7.88;;
1949;SDS011;975;48.760;9.152;2023-02-11T09:51:32;18.88;;;8.05;;
1949;SDS011;975;48.760;9.152;2023-02-11T09:54:04;17.10;;;8.15;;
1949;SDS011;975;48.760;9.152;2023-02-11T09:56:33;18.60;;;7.55;;
1949;SDS011;975;48.760;9.152;2023-02-11T09:59:02;21.40;;;8.63;;
1949;SDS011;975;48.760;9.152;2023-02-11T10:01:36;20.15;;;8.55;;
1949;SDS011;975;48.760;9.152;2023-02-11T10:06:40;18.27;;;8.82;;
1949;SDS011;975;48.760;9.152;2023-02-11T10:09:14;24.90;;;8.38;;
1949;SDS011;975;48.760;9.152;2023-02-11T10:11:47;19.25;;;8.50;;
1949;SDS011;975;48.760;9.152;2023-02-11T10:14:20;18.40;;;8.60;;
1949;SDS011;975;48.760;9.152;2023-02-11T10:16:54;18.65;;;8.13;;
1949;SDS011;975;48.760;9.152;2023-02-11T10:19:30;18.95;;;8.65;;
1949;SDS011;975;48.760;9.152;2023-02-11T10:22:02;22.08;;;8.98;;
1949;SDS011;975;48.760;9.152;2023-02-11T10:24:32;17.52;;;8.43;;
1949;SDS011;975;48.760;9.152;2023-02-11T10:27:07;18.63;;;8.88;;
1949;SDS011;975;48.760;9.152;2023-02-11T10:29:41;23.42;;;9.45;;
1949;SDS011;975;48.760;9.152;2023-02-11T10:32:13;19.80;;;8.43;;
1949;SDS011;975;48.760;9.152;2023-02-11T10:34:41;26.02;;;8.65;;
1949;SDS011;975;48.760;9.152;2023-02-11T10:37:17;18.38;;;8.32;;
1949;SDS011;975;48.760;9.152;2023-02-11T10:39:46;18.25;;;8.07;;
1949;SDS011;975;48.760;9.152;2023-02-11T10:42:13;20.42;;;8.88;;
1949;SDS011;975;48.760;9.152;2023-02-11T10:44:42;18.60;;;8.13;;
1949;SDS011;975;48.760;9.152;2023-02-11T10:47:17;16.92;;;7.07;;
1949;SDS011;975;48.760;9.152;2023-02-11T10:49:47;14.38;;;7.03;;
1949;SDS011;975;48.760;9.152;2023-02-11T10:52:17;19.52;;;6.28;;
1949;SDS011;975;48.760;9.152;2023-02-11T10:57:16;22.63;;;9.82;;
1949;SDS011;975;48.760;9.152;2023-02-11T10:59:45;20.80;;;9.77;;
1949;SDS011;975;48.760;9.152;2023-02-11T11:02:20;21.85;;;10.35;;
1949;SDS011;975;48.760;9.152;2023-02-11T11:04:47;21.85;;;9.88;;
1949;SDS011;975;48.760;9.152;2023-02-11T11:07:17;21.95;;;9.55;;
1949;SDS011;975;48.760;9.152;2023-02-11T11:09:50;20.45;;;9.27;;
1949;SDS011;975;48.760;9.152;2023-02-11T11:12:32;23.45;;;10.25;;
1949;SDS011;975;48.760;9.152;2023-02-11T11:15:02;26.35;;;10.55;;
1949;SDS011;975;48.760;9.152;2023-02-11T11:17:30;23.13;;;9.27;;
1949;SDS011;975;48.760;9.152;2023-02-11T11:20:21;23.70;;;10.55;;
1949;SDS011;975;48.760;9.152;2023-02-11T11:22:50;23.58;;;10.25;;
1949;SDS011;975;48.760;9.152;2023-02-11T11:25:21;21.90;;;10.75;;
1949;SDS011;975;48.760;9.152;2023-02-11T11:27:50;17.75;;;8.63;;
1949;SDS011;975;48.760;9.152;2023-02-11T11:30:19;19.70;;;7.85;;
1949;SDS011;975;48.760;9.152;2023-02-11T11:32:47;19.92;;;8.93;;
1949;SDS011;975;48.760;9.152;2023-02-11T11:35:22;15.80;;;7.28;;
1949;SDS011;975;48.760;9.152;2023-02-11T11:37:54;19.02;;;7.97;;
1949;SDS011;975;48.760;9.152;2023-02-11T11:40:24;22.83;;;8.93;;
1949;SDS011;975;48.760;9.152;2023-02-11T11:43:14;15.13;;;7.15;;
1949;SDS011;975;48.760;9.152;2023-02-11T11:45:53;18.50;;;8.18;;
1949;SDS011;975;48.760;9.152;2023-02-11T11:48:23;15.32;;;7.97;;
1949;SDS011;975;48.760;9.152;2023-02-11T11:50:55;15.70;;;7.38;;
1949;SDS011;975;48.760;9.152;2023-02-11T11:53:26;16.95;;;7.82;;
1949;SDS011;975;48.760;9.152;2023-02-11T11:56:02;16.75;;;7.65;;
1949;SDS011;975;48.760;9.152;2023-02-11T11:58:36;14.60;;;7.55;;
1949;SDS011;975;48.760;9.152;2023-02-11T12:01:14;15.82;;;8.00;;
1949;SDS011;975;48.760;9.152;2023-02-11T12:06:56;13.90;;;6.70;;
1949;SDS011;975;48.760;9.152;2023-02-11T12:09:29;16.45;;;7.90;;
1949;SDS011;975;48.760;9.152;2023-02-11T12:14:48;12.90;;;6.70;;
1949;SDS011;975;48.760;9.152;2023-02-11T12:17:23;14.15;;;6.13;;
1949;SDS011;975;48.760;9.152;2023-02-11T12:20:04;12.93;;;5.72;;
1949;SDS011;975;48.760;9.152;2023-02-11T12:22:40;12.75;;;7.07;;
1949;SDS011;975;48.760;9.152;2023-02-11T12:25:17;13.07;;;6.40;;
1949;SDS011;975;48.760;9.152;2023-02-11T12:27:47;11.77;;;6.00;;
1949;SDS011;975;48.760;9.152;2023-02-11T12:30:36;11.50;;;6.07;;
1949;SDS011;975;48.760;9.152;2023-02-11T12:33:06;12.00;;;5.65;;
1949;SDS011;975;48.760;9.152;2023-02-11T12:38:07;12.43;;;6.03;;
1949;SDS011;975;48.760;9.152;2023-02-11T12:40:38;14.70;;;6.78;;
1949;SDS011;975;48.760;9.152;2023-02-11T12:43:11;13.75;;;6.38;;
1949;SDS011;975;48.760;9.152;2023-02-11T12:45:48;12.77;;;6.82;;
1949;SDS011;975;48.760;9.152;2023-02-11T12:48:24;16.55;;;6.22;;
1949;SDS011;975;48.760;9.152;2023-02-11T12:53:33;14.23;;;5.95;;
1949;SDS011;975;48.760;9.152;2023-02-11T12:56:04;11.35;;;5.90;;
1949;SDS011;975;48.760;9.152;2023-02-11T12:58:35;12.48;;;6.35;;
1949;SDS011;975;48.760;9.152;2023-02-11T13:01:05;12.57;;;6.10;;
1949;SDS011;975;48.760;9.152;2023-02-11T13:03:35;11.85;;;4.90;;
1949;SDS011;975;48.760;9.152;2023-02-11T13:06:05;9.75;;;4.63;;
1949;SDS011;975;48.760;9.152;2023-02-11T13:08:34;10.30;;;5.20;;
1949;SDS011;975;48.760;9.152;2023-02-11T13:11:04;10.73;;;4.28;;
1949;SDS011;975;48.760;9.152;2023-02-11T13:13:37;8.18;;;4.10;;
1949;SDS011;975;48.760;9.152;2023-02-11T13:16:12;8.15;;;4.47;;
1949;SDS011;975;48.760;9.152;2023-02-11T13:18:44;11.90;;;4.80;;
1949;SDS011;975;48.760;9.152;2023-02-11T13:23:58;7.38;;;3.53;;
1949;SDS011;975;48.760;9.152;2023-02-11T13:26:31;8.80;;;4.55;;
1949;SDS011;975;48.760;9.152;2023-02-11T13:29:04;9.27;;;4.05;;
1949;SDS011;975;48.760;9.152;2023-02-11T13:31:36;9.82;;;4.50;;
1949;SDS011;975;48.760;9.152;2023-02-11T13:34:07;11.50;;;5.43;;
1949;SDS011;975;48.760;9.152;2023-02-11T13:36:50;10.32;;;4.60;;
1949;SDS011;975;48.760;9.152;2023-02-11T13:39:20;11.13;;;5.03;;
1949;SDS011;975;48.760;9.152;2023-02-11T13:41:48;16.60;;;6.63;;
1949;SDS011;975;48.760;9.152;2023-02-11T13:44:18;18.30;;;6.55;;
1949;SDS011;975;48.760;9.152;2023-02-11T13:47:00;13.70;;;5.63;;
1949;SDS011;975;48.760;9.152;2023-02-11T13:49:33;16.48;;;7.18;;
1949;SDS011;975;48.760;9.152;2023-02-11T13:52:02;19.55;;;8.73;;
1949;SDS011;975;48.760;9.152;2023-02-11T13:54:32;19.20;;;8.23;;
1949;SDS011;975;48.760;9.152;2023-02-11T13:57:20;23.10;;;7.82;;
1949;SDS011;975;48.760;9.152;2023-02-11T13:59:52;17.02;;;8.38;;
1949;SDS011;975;48.760;9.152;2023-02-11T14:02:30;17.13;;;8.20;;
1949;SDS011;975;48.760;9.152;2023-02-11T14:05:24;23.05;;;8.88;;
1949;SDS011;975;48.760;9.152;2023-02-11T14:11:44;19.52;;;8.25;;
1949;SDS011;975;48.760;9.152;2023-02-11T14:14:15;19.58;;;8.13;;
1949;SDS011;975;48.760;9.152;2023-02-11T14:19:56;19.52;;;8.55;;
1949;SDS011;975;48.760;9.152;2023-02-11T14:22:25;17.08;;;7.45;;
1949;SDS011;975;48.760;9.152;2023-02-11T14:24:56;17.05;;;8.05;;
1949;SDS011;975;48.760;9.152;2023-02-11T14:30:19;17.42;;;7.57;;
1949;SDS011;975;48.760;9.152;2023-02-11T14:33:00;19.75;;;7.50;;
1949;SDS011;975;48.760;9.152;2023-02-11T14:36:04;18.35;;;7.90;;
1949;SDS011;975;48.760;9.152;2023-02-11T14:38:42;18.92;;;7.72;;
1949;SDS011;975;48.760;9.152;2023-02-11T14:41:18;17.75;;;8.23;;
1949;SDS011;975;48.760;9.152;2023-02-11T14:43:49;18.00;;;8.15;;
1949;SDS011;975;48.760;9.152;2023-02-11T14:46:19;15.30;;;7.05;;
1949;SDS011;975;48.760;9.152;2023-02-11T14:48:48;21.38;;;8.57;;
1949;SDS011;975;48.760;9.152;2023-02-11T14:51:19;15.43;;;7.35;;
1949;SDS011;975;48.760;9.152;2023-02-11T14:53:49;16.38;;;7.55;;
1949;SDS011;975;48.760;9.152;2023-02-11T14:56:20;18.52;;;8.32;;
1949;SDS011;975;48.760;9.152;2023-02-11T14:58:52;17.70;;;8.05;;
1949;SDS011;975;48.760;9.152;2023-02-11T15:01:28;17.58;;;8.45;;
1949;SDS011;975;48.760;9.152;2023-02-11T15:03:58;19.50;;;7.55;;
1949;SDS011;975;48.760;9.152;2023-02-11T15:06:29;19.10;;;8.00;;
1949;SDS011;975;48.760;9.152;2023-02-11T15:09:00;15.27;;;6.80;;
1949;SDS011;975;48.760;9.152;2023-02-11T15:11:31;16.98;;;8.00;;
1949;SDS011;975;48.760;9.152;2023-02-11T15:14:06;15.40;;;7.30;;
1949;SDS011;975;48.760;9.152;2023-02-11T15:16:38;15.20;;;7.05;;
1949;SDS011;975;48.760;9.152;2023-02-11T15:19:11;15.55;;;6.90;;
1949;SDS011;975;48.760;9.152;2023-02-11T15:21:50;15.50;;;6.53;;
1949;SDS011;975;48.760;9.152;2023-02-11T15:24:23;18.50;;;8.02;;
1949;SDS011;975;48.760;9.152;2023-02-11T15:26:55;19.90;;;8.75;;
1949;SDS011;975;48.760;9.152;2023-02-11T15:29:27;19.20;;;8.93;;
1949;SDS011;975;48.760;9.152;2023-02-11T15:32:02;17.65;;;8.32;;
1949;SDS011;975;48.760;9.152;2023-02-11T15:34:31;17.88;;;7.93;;
1949;SDS011;975;48.760;9.152;2023-02-11T15:37:01;17.75;;;8.25;;
1949;SDS011;975;48.760;9.152;2023-02-11T15:39:29;21.30;;;9.30;;
1949;SDS011;975;48.760;9.152;2023-02-11T15:42:15;17.85;;;8.15;;
1949;SDS011;975;48.760;9.152;2023-02-11T15:47:34;23.48;;;9.80;;
1949;SDS011;975;48.760;9.152;2023-02-11T15:50:02;25.35;;;10.02;;
1949;SDS011;975;48.760;9.152;2023-02-11T15:52:34;22.52;;;8.48;;
1949;SDS011;975;48.760;9.152;2023-02-11T15:55:02;20.60;;;9.05;;
1949;SDS011;975;48.760;9.152;2023-02-11T15:57:30;20.95;;;9.07;;
1949;SDS011;975;48.760;9.152;2023-02-11T15:59:57;21.30;;;9.32;;
1949;SDS011;975;48.760;9.152;2023-02-11T16:02:29;19.88;;;9.45;;
1949;SDS011;975;48.760;9.152;2023-02-11T16:04:59;19.60;;;9.20;;
1949;SDS011;975;48.760;9.152;2023-02-11T16:07:38;22.90;;;10.20;;